Time;durP1;ratioP1;P1;durP2;ratioP2;P2;SDS_P1;SDS_P2;PMS_P1;PMS_P2;Temp;Humidity;BMP_temperature;BMP_pressure;BME280_temperature;BME280_humidity;BME280_pressure;Samples;Min_cycle;Max_cycle;Signal;HPM_P1;HPM_P2
2024/01/30 00:01:16;;;;;;;32.55;14.88;;;0.40;99.90;;;;;;4997169;28;20057;-67
2024/01/30 00:03:42;;;;;;;34.42;14.27;;;0.40;99.90;;;;;;5007705;28;20053;-68
2024/01/30 00:06:08;;;;;;;30.55;13.80;;;0.40;99.90;;;;;;5007528;28;20378;-67
2024/01/30 00:08:34;;;;;;;37.20;15.48;;;0.40;99.90;;;;;;5008767;28;20032;-67
2024/01/30 00:11:00;;;;;;;37.13;15.68;;;0.50;99.90;;;;;;5006350;28;20046;-70
2024/01/30 00:13:26;;;;;;;35.28;15.65;;;0.50;99.90;;;;;;5004288;28;20045;-68
2024/01/30 00:15:52;;;;;;;35.70;15.65;;;0.50;99.90;;;;;;5007931;28;20041;-68
2024/01/30 00:18:18;;;;;;;34.22;15.35;;;0.50;99.90;;;;;;4989935;28;20044;-69
2024/01/30 00:20:44;;;;;;;34.38;14.70;;;0.50;99.90;;;;;;4998355;28;20053;-68
2024/01/30 00:23:10;;;;;;;34.45;14.25;;;0.50;99.90;;;;;;4990537;28;20026;-68
2024/01/30 00:25:35;;;;;;;37.05;14.88;;;0.40;99.90;;;;;;5000921;28;20462;-67
2024/01/30 00:28:01;;;;;;;33.95;14.82;;;0.40;99.90;;;;;;5007879;28;20037;-70
2024/01/30 00:30:26;;;;;;;33.75;14.43;;;0.40;99.90;;;;;;5007951;28;20509;-67
2024/01/30 00:32:53;;;;;;;39.10;14.63;;;0.30;99.90;;;;;;5008144;28;20457;-68
2024/01/30 00:35:18;;;;;;;39.38;15.75;;;0.30;99.90;;;;;;5005001;28;20385;-68
2024/01/30 00:37:44;;;;;;;36.58;15.02;;;0.20;99.90;;;;;;5011722;28;20029;-66
2024/01/30 00:40:15;;;;;;;40.22;15.68;;;0.20;99.90;;;;;;5003223;28;20041;-68
2024/01/30 00:42:43;;;;;;;33.97;13.95;;;0.20;99.90;;;;;;5003544;28;20041;-68
2024/01/30 00:45:16;;;;;;;35.10;14.60;;;0.20;99.90;;;;;;5009375;28;20064;-67
2024/01/30 00:47:42;;;;;;;32.58;13.98;;;0.10;99.90;;;;;;4998056;28;20802;-68
2024/01/30 00:50:08;;;;;;;38.72;15.85;;;0.10;99.90;;;;;;5001381;28;20042;-68
2024/01/30 00:52:34;;;;;;;39.53;15.45;;;0.00;99.90;;;;;;5011922;28;20528;-68
2024/01/30 00:55:00;;;;;;;35.72;15.70;;;-0.10;99.90;;;;;;5007952;28;20033;-67
2024/01/30 00:57:26;;;;;;;43.45;16.40;;;-0.10;99.90;;;;;;5002919;28;20034;-68
2024/01/30 00:59:52;;;;;;;37.13;15.85;;;-0.10;99.90;;;;;;5011003;28;20465;-68
2024/01/30 01:02:18;;;;;;;35.35;15.50;;;0.00;99.90;;;;;;5010936;28;20030;-68
2024/01/30 01:04:44;;;;;;;36.10;15.15;;;-0.10;99.90;;;;;;5011651;28;20026;-68
2024/01/30 01:07:10;;;;;;;33.58;14.30;;;-0.10;99.90;;;;;;5010686;28;20088;-67
2024/01/30 01:09:36;;;;;;;32.55;15.32;;;-0.20;99.90;;;;;;5011516;28;20038;-67
2024/01/30 01:12:03;;;;;;;39.70;15.07;;;-0.20;99.90;;;;;;5010912;28;20037;-68
2024/01/30 01:14:28;;;;;;;37.22;15.27;;;-0.20;99.90;;;;;;5008758;28;20026;-68
2024/01/30 01:16:54;;;;;;;31.13;14.70;;;-0.20;99.90;;;;;;5002509;28;20043;-67
2024/01/30 01:19:19;;;;;;;32.15;13.60;;;-0.20;99.90;;;;;;5009325;28;20068;-68
2024/01/30 01:21:45;;;;;;;32.33;13.65;;;-0.20;99.90;;;;;;5010778;28;20034;-68
2024/01/30 01:24:11;;;;;;;29.75;12.85;;;-0.10;99.90;;;;;;4998013;28;20037;-68
2024/01/30 01:26:36;;;;;;;32.53;14.02;;;-0.10;99.90;;;;;;5011202;28;20113;-68
2024/01/30 01:29:04;;;;;;;30.48;12.65;;;-0.10;99.90;;;;;;5000894;28;20041;-67
2024/01/30 01:31:29;;;;;;;29.15;12.65;;;-0.10;99.90;;;;;;4997223;28;20038;-68
2024/01/30 01:33:55;;;;;;;30.85;13.52;;;-0.10;99.90;;;;;;5010500;28;20120;-69
2024/01/30 01:36:21;;;;;;;30.85;13.50;;;-0.10;99.90;;;;;;4992438;28;20026;-67
2024/01/30 01:38:46;;;;;;;27.48;12.95;;;0.00;99.90;;;;;;5002932;28;20718;-68
2024/01/30 01:41:12;;;;;;;34.00;13.82;;;-0.10;99.90;;;;;;4997617;28;20069;-68
2024/01/30 01:43:39;;;;;;;32.63;13.77;;;-0.20;99.90;;;;;;4992295;28;20088;-68
2024/01/30 01:46:06;;;;;;;26.92;12.52;;;-0.20;99.90;;;;;;4990923;28;20047;-68
2024/01/30 01:48:32;;;;;;;28.35;12.98;;;-0.30;99.90;;;;;;4994306;28;20031;-68
2024/01/30 01:50:59;;;;;;;33.90;13.93;;;-0.40;99.90;;;;;;4991683;28;20037;-67
2024/01/30 01:53:25;;;;;;;33.13;12.98;;;-0.20;99.90;;;;;;5001014;28;20034;-68
2024/01/30 01:55:52;;;;;;;28.77;12.88;;;-0.20;99.90;;;;;;5009884;28;20442;-68
2024/01/30 01:58:21;;;;;;;29.08;12.88;;;-0.20;99.90;;;;;;5006610;28;20049;-68
2024/01/30 02:00:46;;;;;;;28.45;12.68;;;-0.10;99.90;;;;;;5004323;28;20037;-68
2024/01/30 02:03:17;;;;;;;30.45;12.98;;;0.00;99.90;;;;;;4994207;28;20030;-69
2024/01/30 02:05:42;;;;;;;33.22;12.85;;;0.00;99.90;;;;;;4991257;28;20038;-67
2024/01/30 02:08:08;;;;;;;29.27;13.00;;;0.00;99.90;;;;;;4997193;28;20034;-70
2024/01/30 02:10:34;;;;;;;34.15;13.80;;;0.00;99.90;;;;;;5001389;28;20038;-68
2024/01/30 02:13:00;;;;;;;31.88;12.93;;;0.00;99.90;;;;;;4993835;28;20472;-68
2024/01/30 02:15:25;;;;;;;32.70;12.90;;;-0.10;99.90;;;;;;5009260;28;20046;-68
2024/01/30 02:17:51;;;;;;;29.70;13.10;;;-0.10;99.90;;;;;;5005143;28;20042;-66
2024/01/30 02:20:17;;;;;;;29.20;12.57;;;-0.10;99.90;;;;;;4996368;28;20132;-68
2024/01/30 02:22:43;;;;;;;29.02;12.35;;;-0.10;99.90;;;;;;5009116;28;20121;-68
2024/01/30 02:25:08;;;;;;;31.80;12.68;;;-0.10;99.90;;;;;;5007292;28;20379;-70
2024/01/30 02:27:34;;;;;;;26.20;11.82;;;-0.10;99.90;;;;;;5002356;28;20036;-68
2024/01/30 02:30:00;;;;;;;30.27;12.32;;;-0.20;99.90;;;;;;5007276;28;20411;-68
2024/01/30 02:32:25;;;;;;;30.10;12.48;;;-0.20;99.90;;;;;;5008507;28;20038;-68
2024/01/30 02:34:51;;;;;;;25.13;11.15;;;-0.10;99.90;;;;;;5001143;28;20124;-68
2024/01/30 02:37:17;;;;;;;27.02;12.57;;;-0.10;99.90;;;;;;4993193;28;20030;-68
2024/01/30 02:39:42;;;;;;;26.42;11.75;;;-0.10;99.90;;;;;;4996522;28;20046;-69
2024/01/30 02:42:08;;;;;;;31.95;12.30;;;-0.10;99.90;;;;;;4992901;28;20117;-68
2024/01/30 02:44:34;;;;;;;24.98;10.73;;;-0.30;99.90;;;;;;4997019;28;20064;-67
2024/01/30 02:46:59;;;;;;;27.50;11.52;;;-0.30;99.90;;;;;;5006831;28;20165;-68
2024/01/30 02:49:25;;;;;;;24.65;10.95;;;-0.30;99.90;;;;;;4989367;28;20048;-68
2024/01/30 02:51:52;;;;;;;30.02;11.60;;;-0.30;99.90;;;;;;5004130;28;20068;-68
2024/01/30 02:54:18;;;;;;;27.75;11.43;;;-0.30;99.90;;;;;;5008403;28;20026;-68
2024/01/30 02:56:43;;;;;;;25.50;11.52;;;-0.30;99.90;;;;;;5009448;28;20550;-67
2024/01/30 02:59:09;;;;;;;25.65;11.65;;;-0.30;99.90;;;;;;5007780;28;20072;-69
2024/01/30 03:01:43;;;;;;;28.95;11.88;;;-0.30;99.90;;;;;;5008931;28;20033;-69
2024/01/30 03:04:08;;;;;;;30.92;11.95;;;-0.40;99.90;;;;;;5009288;28;20026;-70
2024/01/30 03:06:34;;;;;;;27.55;11.77;;;-0.40;99.90;;;;;;5008337;28;20065;-67
2024/01/30 03:08:59;;;;;;;27.95;11.80;;;-0.30;99.90;;;;;;5002096;28;20466;-68
2024/01/30 03:11:25;;;;;;;25.08;10.75;;;-0.40;99.90;;;;;;5003120;28;20037;-68
2024/01/30 03:13:51;;;;;;;30.60;12.30;;;-0.30;99.90;;;;;;5009460;28;20033;-68
2024/01/30 03:16:17;;;;;;;26.92;11.30;;;-0.30;99.90;;;;;;5008028;28;20036;-67
2024/01/30 03:18:42;;;;;;;24.33;11.10;;;-0.30;99.90;;;;;;5007030;28;20030;-67
2024/01/30 03:21:08;;;;;;;25.75;11.23;;;-0.30;99.90;;;;;;5007855;28;20030;-67
2024/01/30 03:23:33;;;;;;;26.38;11.13;;;-0.30;99.90;;;;;;5008621;28;20065;-67
2024/01/30 03:25:59;;;;;;;28.73;12.02;;;-0.30;99.90;;;;;;5024040;28;20029;-67
2024/01/30 03:28:24;;;;;;;26.40;11.88;;;-0.30;99.90;;;;;;5007770;28;20099;-68
2024/01/30 03:30:50;;;;;;;28.63;11.95;;;-0.30;99.90;;;;;;5022960;28;20057;-68
2024/01/30 03:33:16;;;;;;;27.88;11.73;;;-0.30;99.90;;;;;;5008400;28;20072;-67
2024/01/30 03:35:41;;;;;;;27.50;11.75;;;-0.20;99.90;;;;;;5009156;28;20045;-67
2024/01/30 03:38:07;;;;;;;26.60;11.45;;;-0.30;99.90;;;;;;5007515;28;20045;-68
2024/01/30 03:40:33;;;;;;;25.77;11.38;;;-0.30;99.90;;;;;;5006052;28;20756;-68
2024/01/30 03:42:58;;;;;;;28.58;11.88;;;-0.30;99.90;;;;;;4995227;28;20037;-68
2024/01/30 03:45:24;;;;;;;24.67;10.43;;;-0.30;99.90;;;;;;5001805;28;20427;-68
2024/01/30 03:47:49;;;;;;;26.48;11.27;;;-0.30;99.90;;;;;;4989190;28;20472;-67
2024/01/30 03:50:15;;;;;;;25.10;11.02;;;-0.30;99.90;;;;;;5006281;28;20068;-70
2024/01/30 03:52:41;;;;;;;25.38;11.32;;;-0.30;99.90;;;;;;5007734;28;20037;-68
2024/01/30 03:55:06;;;;;;;26.95;11.40;;;-0.40;99.90;;;;;;4997963;28;20093;-66
2024/01/30 03:57:32;;;;;;;29.20;11.55;;;-0.40;99.90;;;;;;5008226;28;20033;-68
2024/01/30 03:59:58;;;;;;;23.23;10.68;;;-0.50;99.90;;;;;;4996221;28;20040;-67
2024/01/30 04:02:23;;;;;;;29.15;11.68;;;-0.50;99.90;;;;;;5002727;28;20379;-69
2024/01/30 04:04:49;;;;;;;25.63;10.40;;;-0.50;99.90;;;;;;5007435;28;20034;-68
2024/01/30 04:07:14;;;;;;;26.10;11.45;;;-0.50;99.90;;;;;;5007944;28;20030;-69
2024/01/30 04:09:40;;;;;;;26.55;11.50;;;-0.50;99.90;;;;;;5001971;28;20041;-67
2024/01/30 04:12:06;;;;;;;25.25;10.80;;;-0.50;99.90;;;;;;5010141;28;20030;-68
2024/01/30 04:14:32;;;;;;;27.33;11.60;;;-0.50;99.90;;;;;;5011219;28;20038;-69
2024/01/30 04:16:57;;;;;;;27.92;11.20;;;-0.50;99.90;;;;;;5010247;28;20140;-67
2024/01/30 04:19:23;;;;;;;26.02;11.35;;;-0.60;99.90;;;;;;5001830;28;20037;-68
2024/01/30 04:21:48;;;;;;;28.73;11.45;;;-0.60;99.90;;;;;;5000245;28;20398;-67
2024/01/30 04:24:17;;;;;;;23.70;10.70;;;-0.60;99.90;;;;;;5009518;28;20041;-70
2024/01/30 04:26:42;;;;;;;27.85;11.55;;;-0.60;99.90;;;;;;5001994;28;20044;-67
2024/01/30 04:29:08;;;;;;;28.23;10.57;;;-0.60;99.90;;;;;;4999417;28;20468;-68
2024/01/30 04:31:35;;;;;;;27.50;11.60;;;-0.70;99.90;;;;;;4996822;28;20062;-68
2024/01/30 04:34:01;;;;;;;28.58;11.95;;;-0.70;99.90;;;;;;5009871;28;20084;-68
2024/01/30 04:36:27;;;;;;;25.73;10.82;;;-0.70;99.90;;;;;;5002286;28;20042;-67
2024/01/30 04:38:52;;;;;;;28.88;11.45;;;-0.80;99.90;;;;;;5006184;28;20065;-68
2024/01/30 04:41:18;;;;;;;26.85;10.93;;;-0.80;99.90;;;;;;5010817;28;20026;-69
2024/01/30 04:43:43;;;;;;;30.20;11.55;;;-0.80;99.90;;;;;;5011086;28;20113;-68
2024/01/30 04:46:09;;;;;;;25.65;10.80;;;-0.80;99.90;;;;;;5001431;28;20049;-68
2024/01/30 04:48:34;;;;;;;27.85;11.05;;;-0.70;99.90;;;;;;5007105;28;20637;-68
2024/01/30 04:51:02;;;;;;;24.38;10.82;;;-0.70;99.90;;;;;;5003216;28;20065;-66
2024/01/30 04:53:30;;;;;;;28.38;11.23;;;-0.70;99.90;;;;;;5007343;28;20096;-68
2024/01/30 04:55:56;;;;;;;23.80;10.95;;;-0.70;99.90;;;;;;5009890;28;20022;-68
2024/01/30 04:58:21;;;;;;;25.65;11.80;;;-0.70;99.90;;;;;;5006428;28;20144;-67
2024/01/30 05:00:51;;;;;;;29.85;11.73;;;-0.70;99.90;;;;;;4993291;28;20092;-68
2024/01/30 05:03:18;;;;;;;28.10;11.80;;;-0.70;99.90;;;;;;4993028;28;20041;-67
2024/01/30 05:05:44;;;;;;;30.38;12.70;;;-0.80;99.90;;;;;;5003019;28;20122;-66
2024/01/30 05:08:09;;;;;;;22.70;11.15;;;-0.80;99.90;;;;;;5011241;28;20108;-67
2024/01/30 05:10:35;;;;;;;30.08;12.00;;;-0.90;99.90;;;;;;5010610;28;20034;-68
2024/01/30 05:13:00;;;;;;;26.73;11.52;;;-0.80;99.90;;;;;;5007527;28;20049;-68
2024/01/30 05:15:26;;;;;;;24.58;11.15;;;-0.90;99.90;;;;;;5005012;28;20109;-66
2024/01/30 05:17:51;;;;;;;26.00;11.70;;;-0.80;99.90;;;;;;4993273;28;20033;-65
2024/01/30 05:20:17;;;;;;;32.72;12.13;;;-0.80;99.90;;;;;;5024881;28;20040;-68
2024/01/30 05:22:44;;;;;;;26.58;11.35;;;-0.80;99.90;;;;;;5005457;28;20041;-64
2024/01/30 05:25:12;;;;;;;29.17;11.73;;;-0.80;99.90;;;;;;5002114;28;20564;-65
2024/01/30 05:27:37;;;;;;;30.10;11.60;;;-0.80;99.90;;;;;;4991519;28;20628;-65
2024/01/30 05:30:04;;;;;;;29.45;12.32;;;-0.90;99.90;;;;;;5005480;28;20034;-65
2024/01/30 05:32:30;;;;;;;26.33;11.80;;;-0.90;99.90;;;;;;5007027;28;20034;-67
2024/01/30 05:34:55;;;;;;;25.50;11.50;;;-0.90;99.90;;;;;;5003158;28;20390;-67
2024/01/30 05:37:21;;;;;;;28.73;12.27;;;-1.00;99.90;;;;;;5005513;28;20052;-71
2024/01/30 05:39:47;;;;;;;29.17;11.75;;;-1.00;99.90;;;;;;5005341;28;20108;-67
2024/01/30 05:42:12;;;;;;;27.13;12.02;;;-0.90;99.90;;;;;;5007724;28;20117;-68
2024/01/30 05:44:38;;;;;;;26.25;12.27;;;-1.00;99.90;;;;;;5004240;28;20049;-67
2024/01/30 05:47:04;;;;;;;27.65;12.60;;;-1.00;99.90;;;;;;5005072;28;20033;-66
2024/01/30 05:49:29;;;;;;;30.73;12.23;;;-1.00;99.90;;;;;;5000452;28;20796;-64
2024/01/30 05:51:55;;;;;;;28.45;12.00;;;-1.00;99.90;;;;;;5003566;28;20058;-63
2024/01/30 05:54:21;;;;;;;30.73;12.30;;;-1.00;99.90;;;;;;4995875;28;20073;-68
2024/01/30 05:56:46;;;;;;;33.47;12.73;;;-1.00;99.90;;;;;;5002850;28;20026;-64
2024/01/30 05:59:12;;;;;;;28.52;12.85;;;-1.00;99.90;;;;;;4999895;28;20428;-64
2024/01/30 06:01:38;;;;;;;25.67;11.73;;;-1.00;99.90;;;;;;5006586;28;20030;-64
2024/01/30 06:04:03;;;;;;;32.47;13.32;;;-0.90;99.90;;;;;;5002644;28;20042;-64
2024/01/30 06:06:29;;;;;;;28.55;12.52;;;-1.00;99.90;;;;;;5002156;28;20054;-64
2024/01/30 06:08:56;;;;;;;32.17;12.55;;;-1.00;99.90;;;;;;4998606;28;20517;-64
2024/01/30 06:11:21;;;;;;;28.58;12.20;;;-1.00;99.90;;;;;;4999284;28;20038;-65
2024/01/30 06:13:47;;;;;;;32.85;14.10;;;-0.90;99.90;;;;;;5002727;28;20068;-62
2024/01/30 06:16:12;;;;;;;36.25;15.82;;;-0.90;99.90;;;;;;5003882;28;20037;-65
2024/01/30 06:18:38;;;;;;;33.47;14.82;;;-0.90;99.90;;;;;;5000464;28;20891;-64
2024/01/30 06:21:05;;;;;;;31.08;12.68;;;-0.90;99.90;;;;;;4997321;28;20042;-64
2024/01/30 06:23:30;;;;;;;26.17;11.98;;;-0.90;99.90;;;;;;4988829;28;20060;-65
2024/01/30 06:25:56;;;;;;;30.75;13.05;;;-0.90;99.90;;;;;;4990742;28;20027;-64
2024/01/30 06:28:22;;;;;;;29.23;12.50;;;-0.80;99.90;;;;;;4988950;28;20031;-64
2024/01/30 06:30:47;;;;;;;34.15;13.50;;;-0.80;99.90;;;;;;4999579;28;20037;-64
2024/01/30 06:33:13;;;;;;;33.05;13.80;;;-0.80;99.90;;;;;;5010183;28;20038;-64
2024/01/30 06:35:40;;;;;;;31.17;12.88;;;-0.80;99.90;;;;;;5008870;28;20033;-63
2024/01/30 06:38:06;;;;;;;32.05;12.73;;;-0.80;99.90;;;;;;5009661;28;20030;-63
2024/01/30 06:40:31;;;;;;;30.35;12.65;;;-0.80;99.90;;;;;;5000305;28;20514;-63
2024/01/30 06:42:57;;;;;;;29.92;12.93;;;-0.80;99.90;;;;;;5009932;28;20451;-62
2024/01/30 06:45:23;;;;;;;35.55;13.40;;;-0.80;99.90;;;;;;5008535;28;20061;-62
2024/01/30 06:47:48;;;;;;;31.33;12.20;;;-0.90;99.90;;;;;;4994596;28;20034;-63
2024/01/30 06:50:17;;;;;;;31.00;13.07;;;-0.90;99.90;;;;;;5000829;28;20038;-62
2024/01/30 06:52:42;;;;;;;30.55;12.18;;;-0.90;99.90;;;;;;5008925;28;20054;-62
2024/01/30 06:55:09;;;;;;;29.83;12.55;;;-0.90;99.90;;;;;;5007171;28;20446;-61
2024/01/30 06:57:35;;;;;;;31.30;13.15;;;-0.80;99.90;;;;;;5009018;28;20505;-63
2024/01/30 07:00:01;;;;;;;31.95;12.93;;;-0.70;99.90;;;;;;5007713;28;20030;-63
2024/01/30 07:02:26;;;;;;;33.85;12.90;;;-0.70;99.90;;;;;;5008692;28;20068;-64
2024/01/30 07:04:52;;;;;;;29.55;13.65;;;-0.60;99.90;;;;;;5008262;28;20463;-63
2024/01/30 07:07:17;;;;;;;30.83;12.75;;;-0.60;99.90;;;;;;5008617;28;20080;-63
2024/01/30 07:09:43;;;;;;;31.13;13.85;;;-0.50;99.90;;;;;;5008675;28;20113;-63
2024/01/30 07:12:09;;;;;;;29.23;12.60;;;-0.50;99.90;;;;;;5009271;28;20044;-62
2024/01/30 07:14:35;;;;;;;32.38;11.90;;;-0.50;99.90;;;;;;5004765;28;20150;-63
2024/01/30 07:17:01;;;;;;;28.25;12.38;;;-0.50;99.90;;;;;;4989766;28;20387;-63
2024/01/30 07:19:27;;;;;;;30.98;12.82;;;-0.40;99.90;;;;;;5004461;28;20041;-64
2024/01/30 07:21:52;;;;;;;26.02;11.75;;;-0.30;99.90;;;;;;5008398;28;20371;-64
2024/01/30 07:24:18;;;;;;;26.15;11.18;;;-0.20;99.90;;;;;;4994139;28;20033;-64
2024/01/30 07:26:43;;;;;;;24.92;10.80;;;-0.20;99.90;;;;;;4995020;28;20114;-62
2024/01/30 07:29:09;;;;;;;24.02;11.13;;;-0.20;99.90;;;;;;5009123;28;20041;-64
2024/01/30 07:31:35;;;;;;;25.33;10.82;;;-0.30;99.90;;;;;;5006292;28;20049;-64
2024/01/30 07:34:00;;;;;;;26.50;9.73;;;-0.30;99.90;;;;;;4997274;28;20049;-64
2024/01/30 07:36:26;;;;;;;20.88;9.65;;;-0.20;99.90;;;;;;4988958;28;20061;-67
2024/01/30 07:38:54;;;;;;;24.15;9.77;;;0.00;99.90;;;;;;4989330;28;20486;-64
2024/01/30 07:41:19;;;;;;;20.70;9.70;;;0.00;99.90;;;;;;5006481;28;20030;-63
2024/01/30 07:43:45;;;;;;;21.30;9.57;;;0.20;99.90;;;;;;4997101;28;20075;-63
2024/01/30 07:46:10;;;;;;;26.25;10.45;;;0.30;99.90;;;;;;5006281;28;20030;-63
2024/01/30 07:48:36;;;;;;;22.80;9.88;;;0.40;99.90;;;;;;5008204;28;20060;-62
2024/01/30 07:51:03;;;;;;;22.33;9.70;;;0.40;99.90;;;;;;5007737;28;20041;-64
2024/01/30 07:53:29;;;;;;;25.42;10.18;;;0.50;99.90;;;;;;5004274;28;20049;-63
2024/01/30 07:55:55;;;;;;;23.70;9.65;;;0.60;99.90;;;;;;5004294;28;20038;-62
2024/01/30 07:58:20;;;;;;;22.60;10.05;;;0.60;99.90;;;;;;4997605;28;20041;-62
2024/01/30 08:00:46;;;;;;;23.15;9.95;;;0.70;99.90;;;;;;4993899;28;20057;-63
2024/01/30 08:03:12;;;;;;;23.02;9.88;;;0.80;99.90;;;;;;5022084;28;20423;-62
2024/01/30 08:05:39;;;;;;;25.73;11.00;;;0.90;99.90;;;;;;5008254;28;20030;-63
2024/01/30 08:08:04;;;;;;;25.67;11.20;;;1.00;99.90;;;;;;5003422;28;20347;-63
2024/01/30 08:10:30;;;;;;;26.00;11.70;;;1.10;99.90;;;;;;5003421;28;20527;-63
2024/01/30 08:12:56;;;;;;;34.10;13.02;;;1.20;99.90;;;;;;4995063;28;20041;-63
2024/01/30 08:15:21;;;;;;;25.48;11.48;;;1.20;99.90;;;;;;5007962;28;20041;-63
2024/01/30 08:17:47;;;;;;;21.50;10.68;;;1.30;99.90;;;;;;5007823;28;20026;-64
2024/01/30 08:20:13;;;;;;;25.58;10.88;;;1.30;99.90;;;;;;5007856;28;20033;-63
2024/01/30 08:22:42;;;;;;;23.30;11.00;;;1.40;99.90;;;;;;5007893;28;20038;-63
2024/01/30 08:25:09;;;;;;;22.88;9.88;;;1.50;99.90;;;;;;5004191;28;20038;-63
2024/01/30 08:27:37;;;;;;;20.20;9.85;;;1.60;99.90;;;;;;5007835;28;20029;-64
2024/01/30 08:30:03;;;;;;;25.38;10.38;;;1.70;99.90;;;;;;5007708;28;20037;-66
2024/01/30 08:32:29;;;;;;;22.98;10.90;;;1.80;99.90;;;;;;5005293;28;20030;-67
2024/01/30 08:34:54;;;;;;;23.48;10.95;;;2.00;99.90;;;;;;5008206;28;20061;-64
2024/01/30 08:37:20;;;;;;;24.52;11.32;;;2.10;99.90;;;;;;5023440;28;20582;-65
2024/01/30 08:39:46;;;;;;;23.63;11.25;;;2.10;99.90;;;;;;4997655;28;20038;-66
2024/01/30 08:42:11;;;;;;;26.45;11.23;;;2.10;99.90;;;;;;5003963;28;20057;-65
2024/01/30 08:44:38;;;;;;;28.98;10.73;;;2.20;99.90;;;;;;5007355;28;20132;-65
2024/01/30 08:47:04;;;;;;;23.83;10.35;;;2.20;99.90;;;;;;5008283;28;20045;-65
2024/01/30 08:49:30;;;;;;;23.17;11.38;;;2.20;99.90;;;;;;5002596;28;20054;-67
2024/01/30 08:51:55;;;;;;;27.25;12.43;;;2.30;99.90;;;;;;4988581;28;20499;-64
2024/01/30 08:54:21;;;;;;;24.30;11.60;;;2.30;99.90;;;;;;4997276;28;20114;-64
2024/01/30 08:56:46;;;;;;;26.48;11.27;;;2.30;99.90;;;;;;5008557;28;20033;-64
2024/01/30 08:59:12;;;;;;;23.88;11.00;;;2.30;99.90;;;;;;5011509;28;20087;-64
2024/01/30 09:01:38;;;;;;;25.35;10.80;;;2.40;99.90;;;;;;5005921;28;20104;-64
2024/01/30 09:04:03;;;;;;;26.02;10.90;;;2.50;99.90;;;;;;5011766;28;20034;-65
2024/01/30 09:06:29;;;;;;;23.02;10.75;;;2.60;99.90;;;;;;5011063;28;20037;-68
2024/01/30 09:08:55;;;;;;;24.60;11.15;;;2.70;99.90;;;;;;5011333;28;20371;-66
2024/01/30 09:11:20;;;;;;;25.80;11.77;;;2.80;99.90;;;;;;5010861;28;20124;-64
2024/01/30 09:13:46;;;;;;;26.75;11.75;;;3.00;99.90;;;;;;5010166;28;20030;-64
2024/01/30 09:16:11;;;;;;;24.52;11.50;;;3.20;99.90;;;;;;5011692;28;20558;-65
2024/01/30 09:18:37;;;;;;;23.23;10.88;;;3.40;99.90;;;;;;5009860;28;20030;-63
2024/01/30 09:21:03;;;;;;;30.08;13.15;;;3.50;99.90;;;;;;5003277;28;20042;-65
2024/01/30 09:23:28;;;;;;;29.90;12.45;;;3.70;99.90;;;;;;5011760;28;20053;-65
2024/01/30 09:25:54;;;;;;;31.63;14.00;;;3.80;99.90;;;;;;5010766;28;20109;-64
2024/01/30 09:28:20;;;;;;;34.10;14.70;;;3.90;99.90;;;;;;5011272;28;20044;-65
2024/01/30 09:30:46;;;;;;;37.75;14.82;;;4.00;99.90;;;;;;5006887;28;20026;-65
2024/01/30 09:33:12;;;;;;;38.10;15.25;;;4.20;99.90;;;;;;4991708;28;20026;-64
2024/01/30 09:35:37;;;;;;;32.40;14.82;;;4.40;99.90;;;;;;5001809;28;20034;-64
2024/01/30 09:38:03;;;;;;;34.67;14.65;;;4.50;99.90;;;;;;5009974;28;20030;-63
2024/01/30 09:40:29;;;;;;;33.47;14.95;;;4.70;99.90;;;;;;5011013;28;20034;-65
2024/01/30 09:42:55;;;;;;;30.08;14.80;;;4.80;99.90;;;;;;5009238;28;20054;-64
2024/01/30 09:45:24;;;;;;;33.88;14.57;;;5.00;99.90;;;;;;5008946;28;20082;-65
2024/01/30 09:47:50;;;;;;;34.70;15.32;;;5.20;99.90;;;;;;4999938;28;20036;-65
2024/01/30 09:50:16;;;;;;;30.67;14.68;;;5.40;99.90;;;;;;5010376;28;20034;-64
2024/01/30 09:52:44;;;;;;;31.33;14.73;;;5.60;99.90;;;;;;5007875;28;20042;-63
2024/01/30 09:55:10;;;;;;;29.33;14.30;;;5.70;99.90;;;;;;4998120;28;20030;-65
2024/01/30 09:57:36;;;;;;;31.48;15.27;;;5.90;99.90;;;;;;5010063;28;20144;-66
2024/01/30 10:00:08;;;;;;;28.75;14.38;;;6.10;99.90;;;;;;5010773;28;20030;-64
2024/01/30 10:02:33;;;;;;;29.20;14.43;;;6.30;99.90;;;;;;5009826;28;20096;-66
2024/01/30 10:05:00;;;;;;;31.83;15.90;;;6.50;99.90;;;;;;5009991;28;20030;-65
2024/01/30 10:07:25;;;;;;;32.35;16.05;;;6.70;99.90;;;;;;5009009;28;20053;-65
2024/01/30 10:09:53;;;;;;;31.95;15.82;;;6.90;99.90;;;;;;5007988;28;20069;-65
2024/01/30 10:12:18;;;;;;;37.40;16.52;;;6.90;99.90;;;;;;5009987;28;20045;-64
2024/01/30 10:14:44;;;;;;;36.50;16.08;;;7.00;99.90;;;;;;5009744;28;20041;-65
2024/01/30 10:17:11;;;;;;;31.80;15.75;;;7.10;99.90;;;;;;5009903;28;20026;-63
2024/01/30 10:19:41;;;;;;;32.95;15.43;;;7.10;99.90;;;;;;5007921;28;20038;-66
2024/01/30 10:22:06;;;;;;;35.45;16.30;;;7.20;99.90;;;;;;5009661;28;20026;-64
2024/01/30 10:24:34;;;;;;;33.42;15.95;;;7.20;99.90;;;;;;5009802;28;20394;-62
2024/01/30 10:27:00;;;;;;;35.00;15.38;;;7.30;99.90;;;;;;5005481;28;20105;-64
2024/01/30 10:29:27;;;;;;;30.27;14.98;;;7.30;99.90;;;;;;5010354;28;20161;-65
2024/01/30 10:31:59;;;;;;;31.20;15.43;;;7.50;99.90;;;;;;5008144;28;20034;-66
2024/01/30 10:34:26;;;;;;;30.20;15.60;;;7.70;99.90;;;;;;5007687;28;20141;-65
2024/01/30 10:36:59;;;;;;;30.85;15.88;;;8.00;99.90;;;;;;5004240;28;20053;-65
2024/01/30 10:39:31;;;;;;;31.98;15.57;;;8.30;99.90;;;;;;4989070;28;20038;-65
2024/01/30 10:42:05;;;;;;;33.70;16.48;;;8.70;99.90;;;;;;4997001;28;20075;-64
2024/01/30 10:44:57;;;;;;;39.83;16.75;;;8.80;99.90;;;;;;5009486;28;20054;-64
2024/01/30 10:47:28;;;;;;;32.53;16.55;;;8.80;99.90;;;;;;5007403;28;20034;-68
2024/01/30 10:49:55;;;;;;;32.95;16.85;;;8.80;99.90;;;;;;4989287;28;20495;-67
2024/01/30 10:52:25;;;;;;;31.08;15.93;;;9.00;99.90;;;;;;4990364;28;20113;-65
2024/01/30 10:54:52;;;;;;;36.70;14.73;;;9.10;99.90;;;;;;5000408;28;20479;-65
2024/01/30 10:57:18;;;;;;;32.97;15.90;;;9.20;99.90;;;;;;5001569;28;20468;-65
2024/01/30 10:59:46;;;;;;;30.65;14.63;;;9.20;99.90;;;;;;5005891;28;20037;-66
2024/01/30 11:02:13;;;;;;;26.65;13.70;;;9.20;99.90;;;;;;4998169;28;20026;-66
2024/01/30 11:04:41;;;;;;;27.42;13.75;;;9.20;99.90;;;;;;5022762;28;20475;-71
2024/01/30 11:07:17;;;;;;;30.50;13.90;;;9.40;99.90;;;;;;4998061;28;20029;-65
2024/01/30 11:09:53;;;;;;;27.85;14.05;;;9.70;99.90;;;;;;4996997;28;20038;-69
2024/01/30 11:12:26;;;;;;;26.38;13.07;;;9.90;99.90;;;;;;5004483;28;20029;-68
2024/01/30 11:15:06;;;;;;;23.98;12.05;;;10.20;99.90;;;;;;5004311;28;20084;-69
2024/01/30 11:17:53;;;;;;;25.17;12.77;;;10.50;99.90;;;;;;5007129;28;20026;-67
2024/01/30 11:20:35;;;;;;;23.00;11.93;;;10.80;99.90;;;;;;5002617;28;20076;-66
2024/01/30 11:23:05;;;;;;;19.90;11.07;;;11.00;99.90;;;;;;4998783;28;20026;-69
2024/01/30 11:25:32;;;;;;;24.23;11.63;;;11.10;99.90;;;;;;5003344;28;20913;-69
2024/01/30 11:27:57;;;;;;;19.52;8.85;;;11.00;99.90;;;;;;5004851;28;20298;-69
2024/01/30 11:30:26;;;;;;;18.95;9.77;;;10.90;99.90;;;;;;5005072;28;20116;-69
2024/01/30 11:33:04;;;;;;;22.70;11.52;;;10.90;99.90;;;;;;5008471;28;20048;-70
2024/01/30 11:35:32;;;;;;;22.48;11.27;;;10.80;99.90;;;;;;5008847;28;20034;-69
2024/01/30 11:37:59;;;;;;;17.00;8.25;;;10.70;99.90;;;;;;5007703;28;20029;-69
2024/01/30 11:40:28;;;;;;;12.18;5.78;;;10.70;99.90;;;;;;5008898;28;20568;-70
2024/01/30 11:42:55;;;;;;;16.70;8.02;;;10.70;99.90;;;;;;5008155;28;20029;-69
2024/01/30 11:45:20;;;;;;;16.00;8.10;;;10.80;99.90;;;;;;5005646;28;20046;-69
2024/01/30 11:47:46;;;;;;;22.55;9.20;;;10.90;99.90;;;;;;5007378;28;20032;-69
2024/01/30 11:50:12;;;;;;;15.70;7.20;;;11.00;99.90;;;;;;5007830;28;20037;-68
2024/01/30 11:52:38;;;;;;;12.50;6.50;;;11.00;99.90;;;;;;5008718;28;20080;-71
2024/01/30 11:55:04;;;;;;;16.63;7.90;;;11.10;99.90;;;;;;5007933;28;20498;-68
2024/01/30 11:57:30;;;;;;;16.67;6.72;;;11.10;99.90;;;;;;5008756;28;20034;-70
2024/01/30 11:59:55;;;;;;;13.90;6.63;;;11.10;99.90;;;;;;5007854;28;20405;-70
2024/01/30 12:02:22;;;;;;;13.32;7.18;;;11.10;99.90;;;;;;5006148;28;20033;-69
2024/01/30 12:04:47;;;;;;;16.70;7.57;;;11.10;99.90;;;;;;5007771;28;20797;-69
2024/01/30 12:07:15;;;;;;;10.70;5.50;;;11.20;99.90;;;;;;5008893;28;20034;-68
2024/01/30 12:09:42;;;;;;;14.05;7.57;;;11.30;99.90;;;;;;5008275;28;20113;-71
2024/01/30 12:12:11;;;;;;;17.58;6.03;;;11.30;99.90;;;;;;5008769;28;20026;-67
2024/01/30 12:14:40;;;;;;;14.03;6.23;;;11.30;99.90;;;;;;5008747;28;20073;-66
2024/01/30 12:17:08;;;;;;;13.80;5.82;;;11.30;99.90;;;;;;5007461;28;20030;-67
2024/01/30 12:19:34;;;;;;;12.93;6.05;;;11.30;99.90;;;;;;5008748;28;20092;-67
2024/01/30 12:21:59;;;;;;;15.73;6.40;;;11.30;99.90;;;;;;5007916;28;20224;-70
2024/01/30 12:24:31;;;;;;;14.05;5.65;;;11.40;99.90;;;;;;5008049;28;20030;-68
2024/01/30 12:26:58;;;;;;;14.82;5.70;;;11.40;99.90;;;;;;5007430;28;20057;-69